LIPX/VRN METAR and TAF weather

Enter ICAO airport designator
Station Type Date Time Source
LIPX METAR 2021/04/17 02:20 UTC NOAA

LIPX 170220Z AUTO 01003KT 9999 // NCD 02/M00 Q1017


Station Type Date Time Source
LIPX Decoded METAR 2021/04/17 02:20 UTC NOAA

Verona / Villafranca, Italy (LIPX) 45-23N 010-52E 68M
Apr 16, 2021 - 10:20 PM EDT / 2021.04.17 0220 UTC
Wind: from the N (010 degrees) at 3 MPH (3 KT):0
Visibility: greater than 7 mile(s):0
Temperature: 35 F (2 C)
Dew Point: 32 F (0 C)
Relative Humidity: 86%
Pressure (altimeter): 30.03 in. Hg (1017 hPa)
ob: LIPX 170220Z AUTO 01003KT 9999 // NCD 02/M00 Q1017
cycle: 2

Station Type Date Time Source
LIPX TAF 2014/04/22 15:24 UTC NOAA

TAF LIPX 221400Z 2215/2324 VRB05KT 9999 SCT030 SCT070
TEMPO 2215/2218 SCT025CB SCT080 PROB30
TEMPO 2215/2218 TS

Example: see airport list